Time;durP1;ratioP1;P1;durP2;ratioP2;P2;SDS_P1;SDS_P2;PMS_P1;PMS_P2;Temp;Humidity;BMP_temperature;BMP_pressure;BME280_temperature;BME280_humidity;BME280_pressure;Samples;Min_cycle;Max_cycle;Signal;HPM_P1;HPM_P2
2021/05/15 00:00:13;;;;;;;10.52;3.30;;;358.90;2329.60;;;;;;5056252;28;20071;-87
2021/05/15 00:02:41;;;;;;;;;;;358.90;2329.60;;;;;;5053198;28;20037;-86
2021/05/15 00:05:09;;;;;;;10.40;4.60;;;358.90;2329.60;;;;;;5070297;28;20003;-87
2021/05/15 00:11:00;;;;;;;8.50;4.40;;;358.40;2329.60;;;;;;5052381;28;20029;-88
2021/05/15 00:13:26;;;;;;;8.55;3.97;;;333.70;2329.60;;;;;;5048498;28;20363;-86
2021/05/15 00:16:05;;;;;;;;;;;;;;;;;;;;;
2021/05/15 00:22:41;;;;;;;8.98;3.03;;;358.40;2329.60;;;;;;5061475;28;20021;-87
2021/05/15 00:26:37;;;;;;;;;;;;;;;;;;;;;
2021/05/15 00:36:29;;;;;;;8.57;3.50;;;333.50;2329.60;;;;;;4992088;28;20086;-88
2021/05/15 00:43:11;;;;;;;7.93;3.95;;;333.50;2329.60;;;;;;4970115;28;20033;-87
2021/05/15 00:49:31;;;;;;;16.98;4.68;;;333.50;2329.60;;;;;;4965173;28;20050;-88
2021/05/15 00:52:18;;;;;;;12.20;4.35;;;333.30;2329.60;;;;;;4971200;28;20074;-88
2021/05/15 01:14:17;;;;;;;9.05;3.60;;;333.40;2329.60;;;;;;4972252;28;20077;-87
2021/05/15 01:17:40;;;;;;;11.75;4.00;;;333.40;2329.60;;;;;;4963587;28;20050;-87
2021/05/15 01:23:28;;;;;;;10.20;4.43;;;333.50;2329.60;;;;;;4946195;28;20046;-86
2021/05/15 01:25:57;;;;;;;14.13;5.85;;;333.60;2329.60;;;;;;4956480;28;20562;-85
2021/05/15 01:28:55;;;;;;;11.48;5.13;;;333.60;2329.60;;;;;;4957097;28;20070;-86
2021/05/15 01:31:38;;;;;;;15.07;4.78;;;333.70;2329.60;;;;;;4955251;28;20053;-86
2021/05/15 01:34:27;;;;;;;12.80;5.18;;;333.70;2329.60;;;;;;4941779;28;20031;-83
2021/05/15 01:37:16;;;;;;;10.70;4.65;;;333.30;2329.60;;;;;;4980439;28;20018;-85
2021/05/15 01:53:07;;;;;;;12.95;4.00;;;333.00;2329.60;;;;;;4911691;29;20032;-88
2021/05/15 01:58:54;;;;;;;;;;;333.20;2329.60;;;;;;4927599;29;20081;-88
2021/05/15 02:01:23;;;;;;;12.45;4.30;;;333.20;2329.60;;;;;;4978630;28;19909;-86
2021/05/15 02:03:49;;;;;;;9.70;4.75;;;333.20;2329.60;;;;;;5018666;28;20060;-89
2021/05/15 02:06:37;;;;;;;10.10;4.43;;;333.30;2329.60;;;;;;5053649;28;20128;-88
2021/05/15 02:16:11;;;;;;;10.48;3.95;;;333.20;2329.60;;;;;;4965051;28;20122;-87
2021/05/15 02:26:15;;;;;;;11.00;3.97;;;333.40;2329.60;;;;;;4939289;28;20019;-87
2021/05/15 02:28:47;;;;;;;9.63;4.90;;;333.50;2329.60;;;;;;4975773;28;20046;-85
2021/05/15 02:31:16;;;;;;;7.40;3.63;;;333.40;2329.60;;;;;;5035401;28;20060;-88
2021/05/15 02:33:52;;;;;;;11.80;4.63;;;333.40;2329.60;;;;;;5021414;28;20047;-87
2021/05/15 02:36:36;;;;;;;7.35;3.40;;;333.40;2329.60;;;;;;5058870;28;20035;-88
2021/05/15 02:39:07;;;;;;;7.65;4.18;;;333.40;2329.60;;;;;;5043876;28;20202;-89
2021/05/15 02:41:42;;;;;;;13.43;3.92;;;333.20;2329.60;;;;;;5037251;28;20068;-85
2021/05/15 02:44:09;;;;;;;12.13;3.83;;;333.00;2329.60;;;;;;5021360;28;20072;-85
2021/05/15 02:47:01;;;;;;;12.18;4.28;;;333.40;2329.60;;;;;;5054970;28;20027;-87
2021/05/15 02:49:51;;;;;;;11.27;4.20;;;333.20;2329.60;;;;;;5016552;28;20076;-87
2021/05/15 02:52:17;;;;;;;10.52;4.90;;;333.20;2329.60;;;;;;5037848;28;20088;-87
2021/05/15 02:55:08;;;;;;;11.30;5.18;;;333.20;2329.60;;;;;;5054438;28;20021;-88
2021/05/15 02:57:40;;;;;;;13.48;4.63;;;333.20;2329.60;;;;;;5019144;28;20036;-89
2021/05/15 03:00:20;;;;;;;8.95;4.50;;;333.30;2329.60;;;;;;5037863;28;20079;-88
2021/05/15 03:03:01;;;;;;;;;;;;;;;;;;;;;
2021/05/15 03:05:29;;;;;;;9.95;4.72;;;333.30;2329.60;;;;;;5040399;28;20063;-89
2021/05/15 03:07:55;;;;;;;10.32;4.63;;;333.30;2329.60;;;;;;5053531;28;20037;-87
2021/05/15 03:10:47;;;;;;;12.18;4.40;;;333.30;2329.60;;;;;;5053775;28;20025;-88
2021/05/15 03:13:35;;;;;;;13.93;5.07;;;333.40;2329.60;;;;;;5044943;28;20033;-86
2021/05/15 03:16:10;;;;;;;11.05;5.88;;;333.50;2329.60;;;;;;5054838;28;20420;-85
2021/05/15 03:18:51;;;;;;;13.35;6.03;;;333.50;2329.60;;;;;;5033444;28;20506;-85
2021/05/15 03:21:23;;;;;;;16.70;6.80;;;333.40;2329.60;;;;;;5053144;28;20128;-87
2021/05/15 03:24:10;;;;;;;9.65;5.10;;;333.20;2329.60;;;;;;5052447;28;20037;-87
2021/05/15 03:26:37;;;;;;;15.73;6.25;;;333.20;2329.60;;;;;;5053853;28;20033;-85
2021/05/15 03:29:31;;;;;;;13.13;5.05;;;333.10;2329.60;;;;;;5036684;28;20068;-89
2021/05/15 03:38:01;;;;;;;12.23;5.97;;;333.00;2329.60;;;;;;4929930;29;20042;-87
2021/05/15 03:40:27;;;;;;;12.88;5.82;;;333.20;2329.60;;;;;;5030441;28;20187;-88
2021/05/15 03:42:56;;;;;;;11.15;4.82;;;333.30;2329.60;;;;;;5052941;28;20178;-87
2021/05/15 03:46:11;;;;;;;12.35;5.13;;;333.30;2329.60;;;;;;5053407;28;20389;-87
2021/05/15 03:48:46;;;;;;;12.25;5.38;;;333.30;2329.60;;;;;;5046133;28;20037;-87
2021/05/15 03:51:24;;;;;;;13.55;5.75;;;333.10;2329.60;;;;;;5069126;28;20100;-85
2021/05/15 03:57:41;;;;;;;;;;;;;;;;;;;;;
2021/05/15 04:00:49;;;;;;;;;;;;;;;;;;;;;
2021/05/15 04:02:48;;;;;;;18.23;5.40;;;333.20;2329.60;;;;;;5038032;28;20475;-85
2021/05/15 04:05:30;;;;;;;8.25;4.85;;;333.10;2329.60;;;;;;5053619;28;20049;-86
2021/05/15 04:08:10;;;;;;;;;;;;;;;;;;;;;
2021/05/15 04:10:43;;;;;;;13.60;6.20;;;333.10;2329.60;;;;;;5054386;28;20463;-86
2021/05/15 04:19:31;;;;;;;13.73;6.00;;;332.90;2329.60;;;;;;5032152;28;20025;-88
2021/05/15 04:22:06;;;;;;;11.57;6.35;;;333.00;2329.60;;;;;;5052777;28;20048;-88
2021/05/15 04:24:42;;;;;;;19.05;6.78;;;333.20;2329.60;;;;;;5054125;28;20021;-85
2021/05/15 04:30:56;;;;;;;13.80;6.65;;;332.90;2329.60;;;;;;5074151;28;20081;-86
2021/05/15 04:34:10;;;;;;;17.65;7.07;;;333.10;2329.60;;;;;;5045847;28;20036;-87
2021/05/15 04:37:02;;;;;;;19.48;8.77;;;333.00;2329.60;;;;;;5081291;28;20054;-85
2021/05/15 04:39:38;;;;;;;12.98;7.00;;;333.30;2329.60;;;;;;5073057;28;20080;-87
2021/05/15 04:42:50;;;;;;;14.45;6.28;;;333.50;2329.60;;;;;;5056182;28;20055;-88
2021/05/15 04:45:19;;;;;;;16.98;7.07;;;333.30;2329.60;;;;;;5034024;28;20036;-86
2021/05/15 04:47:52;;;;;;;22.33;7.25;;;333.50;2329.60;;;;;;5037405;28;20124;-87
2021/05/15 04:50:41;;;;;;;17.65;6.97;;;333.40;2329.60;;;;;;5039793;28;20098;-87
2021/05/15 04:53:11;;;;;;;18.50;7.85;;;333.40;2329.60;;;;;;5072250;28;20036;-86
2021/05/15 04:55:41;;;;;;;20.33;9.00;;;333.70;2329.60;;;;;;5076170;28;20016;-86
2021/05/15 04:58:08;;;;;;;17.05;7.80;;;358.40;2329.60;;;;;;5064314;28;20027;-85
2021/05/15 05:00:47;;;;;;;16.63;8.15;;;333.60;2329.60;;;;;;5043762;28;20043;-88
2021/05/15 05:07:04;;;;;;;21.08;7.82;;;358.50;2329.60;;;;;;5040026;28;20049;-88
2021/05/15 05:09:36;;;;;;;22.33;8.38;;;358.60;2329.60;;;;;;5052270;28;20044;-90
2021/05/15 05:12:21;;;;;;;22.23;8.80;;;358.70;2329.60;;;;;;5052304;28;20036;-88
2021/05/15 05:14:48;;;;;;;21.88;9.48;;;358.70;2329.60;;;;;;5052225;28;20417;-86
2021/05/15 05:17:14;;;;;;;22.55;7.93;;;358.70;2329.60;;;;;;5036973;28;20029;-84
2021/05/15 05:20:25;;;;;;;19.85;8.73;;;358.50;2329.60;;;;;;5056085;28;20481;-86
2021/05/15 05:23:14;;;;;;;16.77;8.15;;;333.60;2329.60;;;;;;5047830;28;20041;-89
2021/05/15 05:25:51;;;;;;;21.45;9.75;;;358.40;2329.60;;;;;;5051069;28;20483;-88
2021/05/15 05:28:26;;;;;;;14.98;8.13;;;333.10;2329.60;;;;;;5050638;28;20037;-84
2021/05/15 05:31:05;;;;;;;19.95;7.20;;;358.60;2329.60;;;;;;5056439;28;20108;-88
2021/05/15 05:33:37;;;;;;;21.30;7.82;;;358.80;2329.60;;;;;;5055634;28;20493;-88
2021/05/15 05:36:06;;;;;;;19.95;8.15;;;359.00;2329.60;;;;;;5039971;28;20053;-79
2021/05/15 05:38:31;;;;;;;17.73;6.88;;;359.00;2329.60;;;;;;5054937;28;20138;-83
2021/05/15 05:41:00;;;;;;;15.20;6.32;;;359.20;2329.60;;;;;;5072716;28;20482;-81
2021/05/15 05:43:26;;;;;;;13.98;6.22;;;359.30;2329.60;;;;;;5071634;28;20032;-80
2021/05/15 05:45:52;;;;;;;15.70;5.72;;;384.10;2329.60;;;;;;5072568;28;20025;-82
2021/05/15 05:48:19;;;;;;;16.02;5.07;;;359.30;2329.60;;;;;;5055013;28;20028;-82
2021/05/15 05:50:48;;;;;;;10.77;4.10;;;384.10;2329.60;;;;;;5054833;28;20029;-81
2021/05/15 05:53:21;;;;;;;11.20;4.60;;;384.10;2329.60;;;;;;5060115;28;20036;-81
2021/05/15 05:55:47;;;;;;;13.45;4.57;;;384.30;2329.60;;;;;;5048047;28;20033;-79
2021/05/15 05:58:13;;;;;;;13.77;4.40;;;384.60;2329.60;;;;;;5060748;28;20064;-82
2021/05/15 06:00:39;;;;;;;10.25;4.35;;;384.50;2329.60;;;;;;5063366;28;20021;-81
2021/05/15 06:03:05;;;;;;;9.95;6.28;;;384.70;2329.60;;;;;;5083617;28;20032;-80
2021/05/15 06:05:31;;;;;;;10.98;4.68;;;409.60;2355.20;;;;;;5066309;28;20041;-81
2021/05/15 06:08:07;;;;;;;15.90;4.47;;;409.70;2355.20;;;;;;5063219;28;20033;-79
2021/05/15 06:10:35;;;;;;;9.68;5.28;;;409.90;2355.20;;;;;;5063163;28;20025;-80
2021/05/15 06:13:02;;;;;;;13.18;4.30;;;410.00;2355.20;;;;;;5062833;28;20053;-77
2021/05/15 06:15:28;;;;;;;10.20;3.80;;;410.00;2355.20;;;;;;5055678;28;20478;-80
2021/05/15 06:17:54;;;;;;;10.98;4.30;;;410.20;2355.20;;;;;;5071686;28;20116;-79
2021/05/15 06:20:20;;;;;;;11.27;4.30;;;410.30;2355.20;;;;;;5072630;28;20028;-79
2021/05/15 06:22:46;;;;;;;12.32;4.10;;;410.50;2355.20;;;;;;5055057;28;20021;-79
2021/05/15 06:25:12;;;;;;;12.77;4.05;;;435.20;2355.20;;;;;;5056267;28;20463;-81
2021/05/15 06:27:38;;;;;;;13.57;4.95;;;435.30;2355.20;;;;;;5054522;28;20390;-82
2021/05/15 06:30:05;;;;;;;13.30;4.93;;;435.30;2355.20;;;;;;5070774;28;20036;-81
2021/05/15 06:32:31;;;;;;;11.15;4.43;;;435.50;2355.20;;;;;;5054199;28;20032;-79
2021/05/15 06:34:57;;;;;;;14.05;4.80;;;435.60;2355.20;;;;;;5071241;28;20033;-81
2021/05/15 06:37:22;;;;;;;12.85;4.18;;;435.80;2355.20;;;;;;5071196;28;20115;-80
2021/05/15 06:39:48;;;;;;;7.07;3.70;;;435.90;2355.20;;;;;;5055210;28;20455;-81
2021/05/15 06:42:14;;;;;;;13.10;4.30;;;435.90;2355.20;;;;;;5070942;28;20035;-79
2021/05/15 06:44:40;;;;;;;12.02;3.80;;;436.10;2355.20;;;;;;5056211;28;20057;-81
2021/05/15 06:47:06;;;;;;;10.07;4.55;;;436.10;2355.20;;;;;;5070531;28;20040;-80
2021/05/15 06:49:32;;;;;;;11.82;3.70;;;435.90;2355.20;;;;;;5055464;28;20032;-83
2021/05/15 06:51:58;;;;;;;9.18;3.75;;;436.10;2355.20;;;;;;5070752;28;20025;-81
2021/05/15 06:54:24;;;;;;;8.73;3.92;;;436.10;2355.20;;;;;;5070481;28;20088;-80
2021/05/15 06:56:52;;;;;;;15.65;4.63;;;460.80;2380.80;;;;;;5053871;28;20029;-79
2021/05/15 06:59:18;;;;;;;14.80;3.85;;;436.10;2355.20;;;;;;5054906;28;20040;-77
2021/05/15 07:01:45;;;;;;;8.88;3.53;;;460.80;2380.80;;;;;;5070743;28;20025;-80
2021/05/15 07:04:11;;;;;;;8.98;3.50;;;460.80;2380.80;;;;;;5055265;28;20025;-79
2021/05/15 07:06:37;;;;;;;12.07;3.83;;;460.80;2380.80;;;;;;5053275;28;20164;-78
2021/05/15 07:09:04;;;;;;;9.05;3.65;;;461.00;2380.80;;;;;;5055331;28;20025;-79
2021/05/15 07:11:30;;;;;;;9.55;3.95;;;461.00;2380.80;;;;;;5055642;28;20041;-78
2021/05/15 07:13:56;;;;;;;8.32;3.30;;;461.10;2380.80;;;;;;5070204;28;20467;-79
2021/05/15 07:16:22;;;;;;;10.35;3.35;;;461.10;2380.80;;;;;;5054805;28;20039;-77
2021/05/15 07:18:47;;;;;;;9.88;4.07;;;461.20;2380.80;;;;;;5053585;28;20033;-78
2021/05/15 07:21:14;;;;;;;12.23;5.53;;;461.40;2380.80;;;;;;5069861;28;20021;-80
2021/05/15 07:23:39;;;;;;;10.40;3.75;;;461.50;2380.80;;;;;;5053141;28;20056;-78
2021/05/15 07:26:07;;;;;;;10.52;3.88;;;461.50;2380.80;;;;;;5070237;28;20027;-80
2021/05/15 07:28:34;;;;;;;9.27;3.67;;;461.70;2380.80;;;;;;5069799;28;20035;-82
2021/05/15 07:31:00;;;;;;;10.02;3.92;;;486.40;2380.80;;;;;;5053235;28;20084;-79
2021/05/15 07:33:26;;;;;;;9.32;3.42;;;486.40;2380.80;;;;;;5054332;28;20025;-79
2021/05/15 07:35:52;;;;;;;11.48;2.95;;;486.60;2380.80;;;;;;5054635;28;20036;-78
2021/05/15 07:38:22;;;;;;;6.40;2.92;;;486.60;2380.80;;;;;;5053077;28;20033;-80
2021/05/15 07:40:51;;;;;;;10.55;2.95;;;486.50;2380.80;;;;;;5052118;28;20431;-79
2021/05/15 07:43:23;;;;;;;12.60;3.88;;;486.70;2380.80;;;;;;5053234;28;20029;-79
2021/05/15 07:45:55;;;;;;;8.38;2.90;;;486.70;2380.80;;;;;;5054680;28;20035;-79
2021/05/15 07:48:28;;;;;;;8.02;3.40;;;486.70;2380.80;;;;;;5053140;28;20401;-79
2021/05/15 07:50:56;;;;;;;9.65;2.92;;;486.80;2380.80;;;;;;5054292;28;20032;-79
2021/05/15 07:53:22;;;;;;;8.30;2.90;;;486.90;2380.80;;;;;;5052890;28;20029;-79
2021/05/15 07:55:49;;;;;;;10.30;3.55;;;487.10;2380.80;;;;;;5069557;28;20065;-79
2021/05/15 07:58:16;;;;;;;12.80;3.20;;;487.30;2380.80;;;;;;5053302;28;20394;-78
2021/05/15 08:00:41;;;;;;;9.63;3.15;;;512.10;2380.80;;;;;;5052902;28;20033;-78
2021/05/15 08:03:07;;;;;;;12.13;3.88;;;512.20;2380.80;;;;;;5053585;28;20029;-79
2021/05/15 08:05:33;;;;;;;8.38;2.83;;;512.20;2380.80;;;;;;5053899;28;20053;-79
2021/05/15 08:08:00;;;;;;;15.30;5.05;;;512.40;2304.00;;;;;;5069259;28;20500;-77
2021/05/15 08:10:26;;;;;;;10.13;3.00;;;512.50;2329.60;;;;;;5069341;28;20029;-80
2021/05/15 08:12:52;;;;;;;9.93;2.72;;;512.40;2252.80;;;;;;5053069;28;20517;-80
2021/05/15 08:15:17;;;;;;;13.93;3.45;;;512.50;2278.40;;;;;;5070191;28;20029;-80
2021/05/15 08:17:43;;;;;;;10.63;3.17;;;512.70;2227.20;;;;;;5075838;28;20035;-79
2021/05/15 08:20:09;;;;;;;10.98;2.92;;;512.60;2201.60;;;;;;5076391;28;20375;-79
2021/05/15 08:22:35;;;;;;;10.98;3.08;;;512.50;2176.00;;;;;;5053970;28;20125;-80
2021/05/15 08:29:27;;;;;;;7.18;2.40;;;512.50;2201.60;;;;;;4954097;29;20035;-85
2021/05/15 08:31:53;;;;;;;11.07;3.28;;;512.30;2150.40;;;;;;4979515;28;20192;-84
2021/05/15 08:34:19;;;;;;;7.35;2.42;;;512.30;2201.60;;;;;;5045319;28;20482;-81
2021/05/15 08:36:45;;;;;;;8.02;3.22;;;512.40;2201.60;;;;;;5068711;28;20024;-82
2021/05/15 08:39:11;;;;;;;9.30;3.80;;;512.40;2176.00;;;;;;5069072;28;20434;-79
2021/05/15 08:41:37;;;;;;;8.57;3.25;;;512.40;2201.60;;;;;;5069396;28;20111;-83
2021/05/15 08:44:04;;;;;;;10.13;3.85;;;512.30;2176.00;;;;;;5052291;28;20035;-83
2021/05/15 08:46:31;;;;;;;11.25;5.10;;;512.10;2227.20;;;;;;5052186;28;20029;-81
2021/05/15 08:49:06;;;;;;;15.77;5.50;;;512.10;2278.40;;;;;;5053441;28;20029;-83
2021/05/15 08:51:32;;;;;;;15.40;5.88;;;512.10;2304.00;;;;;;5052403;28;20124;-83
2021/05/15 08:54:01;;;;;;;15.13;5.15;;;512.00;2355.20;;;;;;5056069;28;20029;-81
2021/05/15 08:56:28;;;;;;;10.55;4.65;;;512.10;2380.80;;;;;;5056378;28;20051;-81
2021/05/15 08:58:55;;;;;;;13.80;4.20;;;512.10;2380.80;;;;;;5057798;28;20028;-83
2021/05/15 09:01:22;;;;;;;10.32;3.35;;;487.20;2380.80;;;;;;5057172;28;20032;-83
2021/05/15 09:03:48;;;;;;;14.52;4.65;;;512.00;2380.80;;;;;;5056168;28;20037;-81
2021/05/15 09:06:13;;;;;;;11.32;4.40;;;512.00;2380.80;;;;;;5055650;28;20132;-81
2021/05/15 09:08:39;;;;;;;10.68;4.13;;;512.00;2380.80;;;;;;5072906;28;20386;-84
2021/05/15 09:11:06;;;;;;;10.50;4.00;;;512.00;2380.80;;;;;;5054197;28;20603;-81
2021/05/15 09:13:32;;;;;;;7.32;3.38;;;512.00;2380.80;;;;;;5048033;28;20032;-84
2021/05/15 09:16:01;;;;;;;11.52;3.75;;;512.00;2380.80;;;;;;5057275;28;20467;-80
2021/05/15 09:18:35;;;;;;;14.57;4.00;;;512.00;2380.80;;;;;;5055655;28;20475;-82
2021/05/15 09:21:08;;;;;;;10.27;4.53;;;512.00;2380.80;;;;;;5041562;28;20029;-85
2021/05/15 09:23:37;;;;;;;17.23;7.45;;;512.00;2380.80;;;;;;5040785;28;20029;-84
2021/05/15 09:26:18;;;;;;;11.60;3.55;;;512.00;2380.80;;;;;;5055935;28;20112;-85
2021/05/15 09:28:48;;;;;;;8.60;3.42;;;512.00;2380.80;;;;;;5045939;28;20413;-83
